createdAt,value
2019-02-27T00:00:53.190Z,85.01
2019-02-27T00:01:53.164Z,85.01
2019-02-27T00:02:53.761Z,85.39
2019-02-27T00:03:53.121Z,85.30
2019-02-27T00:04:53.098Z,85.39
2019-02-27T00:05:53.072Z,85.68
2019-02-27T00:06:53.053Z,85.96
2019-02-27T00:07:54.844Z,85.58
2019-02-27T00:08:52.999Z,85.49
2019-02-27T00:09:52.980Z,86.05
2019-02-27T00:10:52.951Z,86.53
2019-02-27T00:11:52.936Z,85.86
2019-02-27T00:12:52.917Z,87.01
2019-02-27T00:13:52.882Z,86.96
2019-02-27T00:14:52.857Z,86.20
2019-02-27T00:15:52.832Z,86.39
2019-02-27T00:16:52.809Z,86.20
2019-02-27T00:17:52.790Z,86.49
2019-02-27T00:18:53.739Z,86.20
2019-02-27T00:19:52.738Z,86.68
2019-02-27T00:20:52.721Z,86.39
2019-02-27T00:21:52.690Z,86.39
2019-02-27T00:22:52.668Z,86.68
2019-02-27T00:23:56.739Z,86.58
2019-02-27T00:24:52.629Z,87.05
2019-02-27T00:25:52.596Z,87.05
2019-02-27T00:26:52.571Z,87.05
2019-02-27T00:27:52.548Z,86.87
2019-02-27T00:28:55.964Z,86.39
2019-02-27T00:29:52.541Z,86.58
2019-02-27T00:30:52.479Z,86.77
2019-02-27T00:31:52.453Z,86.49
2019-02-27T00:32:52.427Z,87.34
2019-02-27T00:33:52.402Z,87.62
2019-02-27T00:34:52.389Z,88.29
2019-02-27T00:35:52.362Z,88.57
2019-02-27T00:36:52.341Z,88.29
2019-02-27T00:37:52.707Z,88.39
2019-02-27T00:38:52.284Z,87.53
2019-02-27T00:39:52.262Z,88.01
2019-02-27T00:40:52.236Z,87.72
2019-02-27T00:41:52.212Z,87.91
2019-02-27T00:42:54.456Z,88.39
2019-02-27T00:43:52.163Z,88.53
2019-02-27T00:44:52.139Z,88.43
2019-02-27T00:45:52.120Z,88.43
2019-02-27T00:46:52.091Z,88.15
2019-02-27T00:47:53.311Z,88.62
2019-02-27T00:48:52.042Z,88.81
2019-02-27T00:49:52.026Z,89.29
2019-02-27T00:50:52.001Z,89.39
2019-02-27T00:51:51.969Z,89.39
2019-02-27T00:52:51.947Z,89.29
2019-02-27T00:53:51.929Z,89.39
2019-02-27T00:54:51.897Z,88.72
2019-02-27T00:55:51.875Z,88.72
2019-02-27T00:56:51.850Z,88.62
2019-02-27T00:57:54.348Z,88.62
2019-02-27T00:58:51.799Z,87.96
2019-02-27T00:59:51.778Z,88.34
2019-02-27T01:00:51.753Z,87.49
2019-02-27T01:01:51.731Z,87.58
2019-02-27T01:02:53.472Z,88.53
2019-02-27T01:03:51.678Z,88.24
2019-02-27T01:04:51.655Z,88.24
2019-02-27T01:05:51.630Z,88.24
2019-02-27T01:06:51.614Z,88.24
2019-02-27T01:07:53.862Z,88.72
2019-02-27T01:08:51.558Z,88.72
2019-02-27T01:09:51.533Z,88.81
2019-02-27T01:10:51.520Z,89.10
2019-02-27T01:11:51.949Z,89.20
2019-02-27T01:12:51.468Z,89.10
2019-02-27T01:13:51.444Z,88.15
2019-02-27T01:14:51.419Z,86.82
2019-02-27T01:15:51.388Z,86.63
2019-02-27T01:16:51.363Z,85.97
2019-02-27T01:17:51.344Z,85.78
2019-02-27T01:18:51.315Z,87.49
2019-02-27T01:19:51.291Z,87.87
2019-02-27T01:20:51.268Z,88.43
2019-02-27T01:21:51.261Z,88.15
2019-02-27T01:22:51.216Z,88.24
2019-02-27T01:23:51.194Z,88.24
2019-02-27T01:24:51.181Z,87.68
2019-02-27T01:25:51.145Z,87.68
2019-02-27T01:26:51.120Z,87.20
2019-02-27T01:27:51.105Z,87.20
2019-02-27T01:28:51.072Z,87.58
2019-02-27T01:29:51.752Z,87.20
2019-02-27T01:30:51.034Z,87.11
2019-02-27T01:31:51.002Z,86.91
2019-02-27T01:32:50.978Z,87.01
2019-02-27T01:33:50.963Z,86.63
2019-02-27T01:34:50.925Z,85.87
2019-02-27T01:35:52.127Z,86.44
2019-02-27T01:36:50.875Z,86.07
2019-02-27T01:37:50.849Z,86.25
2019-02-27T01:38:50.826Z,86.07
2019-02-27T01:39:50.804Z,85.87
2019-02-27T01:40:51.537Z,86.44
2019-02-27T01:41:50.755Z,86.63
2019-02-27T01:42:50.737Z,86.07
2019-02-27T01:43:50.718Z,86.35
2019-02-27T01:44:50.681Z,85.87
2019-02-27T01:45:51.890Z,85.49
2019-02-27T01:46:50.630Z,85.49
2019-02-27T01:47:50.606Z,85.68
2019-02-27T01:48:50.588Z,85.21
2019-02-27T01:49:50.559Z,85.68
2019-02-27T01:50:54.979Z,85.40
2019-02-27T01:51:50.507Z,85.68
2019-02-27T01:52:50.483Z,85.87
2019-02-27T01:53:50.459Z,85.87
2019-02-27T01:54:50.434Z,85.97
2019-02-27T01:55:50.409Z,85.78
2019-02-27T01:56:50.393Z,85.40
2019-02-27T01:57:50.358Z,85.68
2019-02-27T01:58:50.336Z,85.49
2019-02-27T01:59:51.021Z,85.68
2019-02-27T02:00:50.288Z,85.59
2019-02-27T02:01:50.261Z,85.49
2019-02-27T02:02:50.237Z,85.49
2019-02-27T02:03:50.211Z,85.68
2019-02-27T02:04:53.111Z,85.59
2019-02-27T02:05:50.164Z,85.59
2019-02-27T02:06:50.148Z,86.16
2019-02-27T02:07:50.115Z,85.87
2019-02-27T02:08:50.090Z,86.35
2019-02-27T02:09:52.149Z,86.68
2019-02-27T02:10:50.040Z,86.25
2019-02-27T02:11:50.015Z,86.21
2019-02-27T02:12:49.992Z,86.11
2019-02-27T02:13:49.967Z,86.30
2019-02-27T02:14:54.140Z,86.02
2019-02-27T02:15:49.916Z,86.30
2019-02-27T02:16:49.893Z,86.49
2019-02-27T02:17:49.865Z,86.68
2019-02-27T02:18:49.844Z,85.83
2019-02-27T02:19:54.015Z,86.21
2019-02-27T02:20:49.794Z,86.49
2019-02-27T02:21:49.768Z,86.40
2019-02-27T02:22:49.742Z,86.30
2019-02-27T02:23:49.716Z,87.06
2019-02-27T02:24:51.900Z,87.35
2019-02-27T02:25:49.667Z,87.54
2019-02-27T02:26:49.648Z,87.54
2019-02-27T02:27:49.619Z,87.92
2019-02-27T02:28:49.596Z,87.63
2019-02-27T02:29:52.968Z,87.73
2019-02-27T02:30:49.545Z,88.20
2019-02-27T02:31:49.524Z,88.01
2019-02-27T02:32:52.365Z,88.20
2019-02-27T02:33:49.470Z,88.48
2019-02-27T02:34:49.445Z,88.68
2019-02-27T02:35:50.782Z,88.48
2019-02-27T02:36:49.395Z,88.20
2019-02-27T02:37:49.371Z,87.82
2019-02-27T02:38:49.345Z,87.82
2019-02-27T02:39:54.260Z,87.73
2019-02-27T02:40:49.299Z,87.63
2019-02-27T02:41:49.274Z,87.54
2019-02-27T02:42:49.255Z,87.25
2019-02-27T02:43:49.224Z,86.78
2019-02-27T02:44:49.206Z,86.97
2019-02-27T02:45:49.171Z,87.16
2019-02-27T02:46:49.152Z,87.06
2019-02-27T02:47:49.122Z,87.25
2019-02-27T02:48:49.100Z,86.87
2019-02-27T02:49:49.072Z,86.97
2019-02-27T02:50:54.013Z,86.78
2019-02-27T02:51:49.024Z,86.97
2019-02-27T02:52:49.002Z,87.16
2019-02-27T02:53:49.165Z,87.16
2019-02-27T02:54:48.960Z,86.78
2019-02-27T02:55:49.370Z,86.68
2019-02-27T02:56:48.899Z,87.35
2019-02-27T02:57:48.874Z,86.11
2019-02-27T02:58:48.979Z,86.11
2019-02-27T02:59:48.824Z,86.30
2019-02-27T03:00:48.801Z,86.59
2019-02-27T03:01:49.289Z,86.30
2019-02-27T03:02:48.749Z,86.87
2019-02-27T03:03:48.743Z,86.97
2019-02-27T03:04:49.377Z,86.49
2019-02-27T03:05:48.675Z,86.68
2019-02-27T03:06:48.661Z,86.59
2019-02-27T03:07:48.636Z,86.49
2019-02-27T03:08:54.956Z,86.11
2019-02-27T03:09:48.579Z,86.11
2019-02-27T03:10:48.551Z,85.93
2019-02-27T03:11:54.221Z,86.30
2019-02-27T03:12:48.520Z,86.49
2019-02-27T03:13:48.474Z,86.68
2019-02-27T03:14:53.311Z,87.35
2019-02-27T03:15:48.425Z,87.54
2019-02-27T03:16:48.400Z,87.35
2019-02-27T03:17:53.697Z,87.16
2019-02-27T03:18:48.354Z,87.35
2019-02-27T03:19:48.325Z,87.25
2019-02-27T03:20:51.799Z,87.16
2019-02-27T03:21:48.274Z,87.73
2019-02-27T03:22:48.250Z,87.63
2019-02-27T03:23:52.059Z,87.63
2019-02-27T03:24:48.219Z,88.01
2019-02-27T03:25:48.172Z,88.58
2019-02-27T03:26:51.620Z,88.77
2019-02-27T03:27:48.126Z,88.77
2019-02-27T03:28:48.108Z,89.25
2019-02-27T03:29:52.199Z,89.06
2019-02-27T03:30:48.078Z,89.62
2019-02-27T03:31:57.672Z,89.62
2019-02-27T03:32:48.004Z,88.92
2019-02-27T03:33:47.982Z,89.20
2019-02-27T03:34:50.917Z,89.39
2019-02-27T03:35:47.922Z,88.63
2019-02-27T03:36:47.896Z,88.77
2019-02-27T03:37:49.344Z,88.10
2019-02-27T03:38:47.846Z,88.16
2019-02-27T03:39:47.823Z,88.29
2019-02-27T03:40:48.106Z,88.73
2019-02-27T03:41:47.772Z,88.44
2019-02-27T03:42:47.750Z,88.92
2019-02-27T03:43:47.720Z,88.92
2019-02-27T03:44:47.697Z,88.73
2019-02-27T03:45:47.668Z,88.06
2019-02-27T03:46:47.649Z,88.01
2019-02-27T03:47:51.661Z,88.48
2019-02-27T03:48:47.597Z,88.39
2019-02-27T03:49:47.574Z,88.48
2019-02-27T03:50:49.933Z,88.48
2019-02-27T03:51:47.524Z,88.20
2019-02-27T03:52:47.496Z,88.01
2019-02-27T03:53:47.466Z,87.92
2019-02-27T03:54:48.474Z,88.16
2019-02-27T03:55:47.416Z,87.59
2019-02-27T03:56:47.392Z,87.49
2019-02-27T03:57:47.364Z,88.16
2019-02-27T03:58:47.348Z,88.16
2019-02-27T03:59:47.316Z,88.25
2019-02-27T04:00:49.848Z,88.16
2019-02-27T04:01:47.274Z,88.39
2019-02-27T04:02:47.239Z,88.16
2019-02-27T04:03:47.213Z,87.87
2019-02-27T04:04:47.188Z,88.44
2019-02-27T04:05:47.172Z,88.16
2019-02-27T04:06:47.147Z,88.35
2019-02-27T04:07:47.111Z,87.59
2019-02-27T04:08:47.088Z,87.21
2019-02-27T04:09:47.063Z,86.64
2019-02-27T04:10:47.046Z,87.35
2019-02-27T04:11:47.010Z,87.16
2019-02-27T04:12:51.361Z,86.30
2019-02-27T04:13:46.959Z,86.40
2019-02-27T04:14:46.934Z,87.73
2019-02-27T04:15:46.918Z,87.63
2019-02-27T04:16:46.886Z,88.48
2019-02-27T04:17:51.882Z,88.20
2019-02-27T04:18:46.838Z,87.92
2019-02-27T04:19:46.816Z,88.20
2019-02-27T04:20:50.169Z,87.35
2019-02-27T04:21:46.756Z,87.73
2019-02-27T04:22:46.742Z,87.63
2019-02-27T04:23:48.979Z,87.40
2019-02-27T04:24:46.681Z,88.16
2019-02-27T04:25:46.658Z,88.16
2019-02-27T04:26:46.629Z,88.16
2019-02-27T04:27:46.605Z,88.25
2019-02-27T04:28:46.582Z,87.87
2019-02-27T04:29:46.564Z,88.25
2019-02-27T04:30:51.019Z,88.63
2019-02-27T04:31:46.503Z,88.35
2019-02-27T04:32:48.684Z,88.73
2019-02-27T04:33:46.455Z,89.11
2019-02-27T04:34:46.425Z,89.39
2019-02-27T04:35:46.400Z,89.86
2019-02-27T04:36:47.176Z,90.15
2019-02-27T04:37:46.349Z,90.05
2019-02-27T04:38:46.327Z,89.58
2019-02-27T04:39:46.302Z,89.58
2019-02-27T04:40:46.275Z,89.39
2019-02-27T04:41:46.249Z,89.67
2019-02-27T04:42:46.224Z,89.58
2019-02-27T04:43:46.198Z,89.58
2019-02-27T04:44:46.173Z,89.20
2019-02-27T04:45:46.888Z,89.29
2019-02-27T04:46:46.121Z,89.39
2019-02-27T04:47:46.095Z,88.63
2019-02-27T04:48:46.068Z,88.54
2019-02-27T04:49:46.041Z,88.73
2019-02-27T04:50:46.019Z,89.29
2019-02-27T04:51:48.127Z,89.39
2019-02-27T04:52:45.968Z,89.20
2019-02-27T04:53:45.941Z,88.92
2019-02-27T04:54:45.921Z,89.20
2019-02-27T04:55:47.992Z,88.92
2019-02-27T04:56:45.865Z,89.20
2019-02-27T04:57:45.838Z,89.86
2019-02-27T04:58:45.813Z,89.20
2019-02-27T04:59:45.788Z,89.39
2019-02-27T05:00:45.762Z,89.01
2019-02-27T05:01:45.734Z,89.29
2019-02-27T05:02:45.710Z,89.48
2019-02-27T05:03:45.685Z,89.29
2019-02-27T05:04:45.660Z,89.20
2019-02-27T05:05:45.633Z,89.20
2019-02-27T05:06:47.364Z,89.20
2019-02-27T05:07:45.584Z,89.20
2019-02-27T05:08:45.557Z,89.39
2019-02-27T05:09:45.531Z,89.39
2019-02-27T05:10:45.529Z,89.39
2019-02-27T05:11:48.334Z,89.48
2019-02-27T05:12:48.281Z,89.58
2019-02-27T05:13:45.429Z,89.39
2019-02-27T05:14:45.402Z,90.05
2019-02-27T05:15:45.377Z,89.96
2019-02-27T05:16:47.197Z,89.67
2019-02-27T05:17:45.326Z,89.86
2019-02-27T05:18:45.301Z,89.96
2019-02-27T05:19:45.275Z,89.96
2019-02-27T05:20:45.826Z,89.67
2019-02-27T05:21:45.224Z,89.77
2019-02-27T05:22:45.203Z,89.86
2019-02-27T05:23:45.230Z,89.77
2019-02-27T05:24:45.149Z,89.86
2019-02-27T05:25:45.121Z,89.86
2019-02-27T05:26:45.096Z,89.96
2019-02-27T05:27:45.070Z,90.62
2019-02-27T05:28:45.060Z,90.53
2019-02-27T05:29:45.021Z,90.43
2019-02-27T05:30:45.790Z,90.91
2019-02-27T05:31:44.975Z,90.72
2019-02-27T05:32:44.940Z,91.09
2019-02-27T05:33:44.920Z,91.09
2019-02-27T05:34:49.425Z,91.19
2019-02-27T05:35:44.864Z,90.91
2019-02-27T05:36:44.838Z,91.47
2019-02-27T05:37:44.823Z,91.00
2019-02-27T05:38:44.787Z,91.38
2019-02-27T05:39:44.761Z,91.57
2019-02-27T05:40:44.734Z,91.38
2019-02-27T05:41:44.708Z,90.81
2019-02-27T05:42:44.680Z,91.00
2019-02-27T05:43:47.546Z,91.38
2019-02-27T05:44:44.630Z,91.47
2019-02-27T05:45:44.606Z,91.19
2019-02-27T05:46:44.579Z,91.28
2019-02-27T05:47:45.802Z,91.19
2019-02-27T05:48:44.528Z,91.19
2019-02-27T05:49:44.556Z,91.28
2019-02-27T05:50:44.523Z,91.28
2019-02-27T05:51:44.450Z,91.57
2019-02-27T05:52:48.389Z,92.61
2019-02-27T05:53:44.404Z,92.33
2019-02-27T05:54:44.371Z,92.23
2019-02-27T05:55:44.346Z,92.52
2019-02-27T05:56:44.323Z,92.71
2019-02-27T05:57:44.294Z,92.90
2019-02-27T05:58:44.268Z,92.80
2019-02-27T05:59:44.242Z,92.71
2019-02-27T06:00:44.217Z,92.99
2019-02-27T06:01:44.191Z,92.80
2019-02-27T06:02:45.020Z,92.42
2019-02-27T06:03:44.140Z,92.42
2019-02-27T06:04:44.113Z,92.61
2019-02-27T06:05:49.559Z,92.80
2019-02-27T06:06:45.718Z,92.52
2019-02-27T06:07:44.044Z,92.90
2019-02-27T06:08:44.013Z,92.23
2019-02-27T06:09:44.578Z,92.33
2019-02-27T06:10:43.960Z,91.57
2019-02-27T06:11:43.944Z,91.38
2019-02-27T06:12:43.908Z,92.61
2019-02-27T06:13:45.000Z,92.23
2019-02-27T06:14:43.854Z,92.42
2019-02-27T06:15:43.834Z,92.52
2019-02-27T06:16:43.805Z,92.52
2019-02-27T06:17:48.296Z,92.90
2019-02-27T06:18:43.759Z,92.90
2019-02-27T06:19:43.739Z,92.14
2019-02-27T06:20:43.700Z,92.23
2019-02-27T06:21:43.673Z,92.33
2019-02-27T06:22:43.658Z,92.52
2019-02-27T06:23:43.622Z,92.61
2019-02-27T06:24:45.731Z,91.85
2019-02-27T06:25:43.571Z,92.33
2019-02-27T06:26:43.545Z,92.99
2019-02-27T06:27:43.532Z,92.90
2019-02-27T06:28:43.494Z,93.08
2019-02-27T06:29:43.469Z,92.99
2019-02-27T06:30:43.440Z,92.52
2019-02-27T06:31:43.414Z,92.71
2019-02-27T06:32:43.389Z,92.61
2019-02-27T06:33:45.780Z,92.61
2019-02-27T06:34:43.342Z,92.90
2019-02-27T06:35:43.320Z,92.90
2019-02-27T06:36:43.295Z,92.71
2019-02-27T06:37:43.259Z,92.71
2019-02-27T06:38:43.242Z,92.61
2019-02-27T06:39:43.213Z,92.42
2019-02-27T06:40:43.184Z,92.42
2019-02-27T06:41:43.155Z,91.66
2019-02-27T06:42:43.131Z,90.62
2019-02-27T06:43:43.105Z,91.38
2019-02-27T06:44:43.128Z,92.52
2019-02-27T06:45:45.370Z,92.42
2019-02-27T06:46:44.525Z,91.76
2019-02-27T06:47:43.004Z,91.19
2019-02-27T06:48:44.048Z,91.28
2019-02-27T06:49:42.961Z,91.38
2019-02-27T06:50:42.923Z,90.43
2019-02-27T06:51:42.906Z,89.67
2019-02-27T06:52:43.118Z,89.11
2019-02-27T06:53:42.856Z,89.01
2019-02-27T06:54:42.821Z,90.43
2019-02-27T06:55:42.795Z,89.86
2019-02-27T06:56:42.772Z,90.43
2019-02-27T06:57:42.743Z,89.96
2019-02-27T06:58:42.725Z,89.39
2019-02-27T06:59:42.690Z,89.29
2019-02-27T07:00:42.682Z,89.39
2019-02-27T07:01:45.026Z,89.34
2019-02-27T07:02:42.614Z,88.68
2019-02-27T07:03:42.594Z,88.77
2019-02-27T07:04:42.563Z,88.48
2019-02-27T07:05:42.538Z,87.35
2019-02-27T07:06:42.511Z,88.20
2019-02-27T07:07:42.502Z,87.63
2019-02-27T07:08:42.460Z,86.97
2019-02-27T07:09:45.522Z,86.87
2019-02-27T07:10:42.407Z,86.87
2019-02-27T07:11:44.998Z,86.40
2019-02-27T07:12:42.361Z,87.06
2019-02-27T07:13:42.330Z,86.40
2019-02-27T07:14:42.302Z,86.49
2019-02-27T07:15:47.909Z,87.06
2019-02-27T07:16:42.254Z,86.30
2019-02-27T07:17:42.246Z,86.78
2019-02-27T07:18:42.470Z,86.30
2019-02-27T07:19:42.183Z,86.02
2019-02-27T07:20:42.156Z,86.21
2019-02-27T07:21:42.125Z,85.74
2019-02-27T07:22:45.495Z,86.49
2019-02-27T07:23:42.072Z,85.45
2019-02-27T07:24:42.051Z,86.11
2019-02-27T07:25:42.786Z,86.40
2019-02-27T07:26:41.996Z,85.45
2019-02-27T07:27:41.989Z,85.02
2019-02-27T07:28:43.506Z,84.07
2019-02-27T07:29:42.918Z,82.93
2019-02-27T07:30:42.481Z,83.12
2019-02-27T07:31:41.868Z,83.40
2019-02-27T07:32:41.850Z,83.12
2019-02-27T07:33:41.817Z,84.07
2019-02-27T07:34:41.791Z,83.31
2019-02-27T07:35:41.770Z,82.36
2019-02-27T07:36:41.744Z,81.32
2019-02-27T07:37:41.718Z,81.79
2019-02-27T07:38:41.692Z,81.98
2019-02-27T07:39:41.667Z,81.13
2019-02-27T07:40:43.029Z,80.46
2019-02-27T07:41:41.616Z,80.46
2019-02-27T07:42:41.605Z,81.41
2019-02-27T07:43:41.571Z,80.27
2019-02-27T07:44:42.261Z,81.13
2019-02-27T07:45:42.765Z,80.27
2019-02-27T07:46:41.490Z,80.37
2019-02-27T07:47:41.465Z,81.13
2019-02-27T07:48:41.439Z,80.56
2019-02-27T07:49:41.419Z,81.13
2019-02-27T07:50:41.389Z,81.32
2019-02-27T07:51:41.369Z,80.13
2019-02-27T07:52:41.339Z,79.71
2019-02-27T07:53:41.317Z,80.41
2019-02-27T07:54:41.286Z,79.65
2019-02-27T07:55:41.263Z,80.32
2019-02-27T07:56:41.237Z,80.32
2019-02-27T07:57:41.213Z,79.74
2019-02-27T07:58:41.187Z,79.46
2019-02-27T07:59:41.163Z,79.55
2019-02-27T08:00:42.769Z,78.80
2019-02-27T08:01:43.978Z,79.08
2019-02-27T08:02:41.085Z,78.80
2019-02-27T08:03:44.907Z,79.36
2019-02-27T08:04:41.037Z,78.99
2019-02-27T08:05:41.019Z,78.51
2019-02-27T08:06:41.587Z,78.99
2019-02-27T08:07:40.960Z,78.32
2019-02-27T08:08:40.937Z,77.84
2019-02-27T08:09:40.918Z,77.84
2019-02-27T08:10:40.895Z,77.94
2019-02-27T08:11:40.861Z,78.23
2019-02-27T08:12:40.842Z,77.75
2019-02-27T08:13:40.810Z,78.70
2019-02-27T08:14:40.800Z,77.94
2019-02-27T08:15:40.761Z,77.89
2019-02-27T08:16:40.743Z,76.37
2019-02-27T08:17:40.711Z,76.18
2019-02-27T08:18:40.688Z,77.22
2019-02-27T08:19:42.832Z,77.89
2019-02-27T08:20:40.640Z,75.42
2019-02-27T08:21:40.620Z,75.42
2019-02-27T08:22:40.598Z,76.56
2019-02-27T08:23:40.569Z,75.70
2019-02-27T08:24:40.540Z,75.23
2019-02-27T08:25:40.521Z,74.66
2019-02-27T08:26:40.492Z,74.94
2019-02-27T08:27:43.073Z,74.27
2019-02-27T08:28:40.454Z,74.47
2019-02-27T08:29:40.428Z,74.66
2019-02-27T08:30:40.391Z,74.27
2019-02-27T08:31:40.367Z,74.56
2019-02-27T08:32:40.344Z,73.80
2019-02-27T08:33:40.373Z,71.66
2019-02-27T08:34:40.295Z,70.23
2019-02-27T08:35:40.274Z,69.66
2019-02-27T08:36:40.245Z,69.37
2019-02-27T08:37:40.222Z,69.09
2019-02-27T08:38:40.248Z,68.52
2019-02-27T08:39:40.170Z,67.66
2019-02-27T08:40:40.152Z,67.41
2019-02-27T08:41:40.124Z,67.60
2019-02-27T08:42:40.564Z,67.69
2019-02-27T08:43:41.218Z,67.60
2019-02-27T08:44:40.058Z,67.60
2019-02-27T08:45:40.040Z,67.60
2019-02-27T08:46:40.005Z,67.60
2019-02-27T08:47:40.869Z,67.79
2019-02-27T08:48:39.971Z,67.79
2019-02-27T08:49:39.926Z,67.98
2019-02-27T08:50:39.903Z,67.03
2019-02-27T08:51:42.006Z,66.74
2019-02-27T08:52:39.853Z,66.55
2019-02-27T08:53:39.829Z,67.03
2019-02-27T08:54:39.805Z,66.74
2019-02-27T08:55:39.832Z,66.78
2019-02-27T08:56:39.756Z,67.07
2019-02-27T08:57:39.732Z,67.07
2019-02-27T08:58:39.708Z,66.97
2019-02-27T08:59:40.690Z,66.78
2019-02-27T09:00:39.671Z,66.59
2019-02-27T09:01:39.636Z,65.95
2019-02-27T09:02:39.754Z,65.19
2019-02-27T09:03:39.587Z,64.18
2019-02-27T09:04:39.567Z,62.59
2019-02-27T09:05:39.540Z,61.10
2019-02-27T09:06:39.526Z,60.17
2019-02-27T09:07:39.494Z,58.68
2019-02-27T09:08:43.339Z,57.63
2019-02-27T09:09:39.449Z,56.87
2019-02-27T09:10:39.427Z,55.94
2019-02-27T09:11:40.753Z,56.13
2019-02-27T09:12:40.248Z,55.77
2019-02-27T09:13:39.363Z,55.01
2019-02-27T09:14:39.351Z,54.91
2019-02-27T09:15:41.574Z,56.85
2019-02-27T09:16:39.314Z,55.42
2019-02-27T09:17:39.282Z,54.02
2019-02-27T09:18:39.263Z,52.01
2019-02-27T09:19:39.262Z,53.47
2019-02-27T09:20:39.227Z,53.78
2019-02-27T09:21:39.205Z,51.51
2019-02-27T09:22:39.187Z,48.64
2019-02-27T09:23:39.175Z,47.13
2019-02-27T09:24:39.162Z,46.17
2019-02-27T09:25:39.140Z,46.75
2019-02-27T09:26:39.145Z,45.43
2019-02-27T09:27:39.103Z,45.74
2019-02-27T09:28:39.084Z,44.11
2019-02-27T09:29:39.072Z,43.82
2019-02-27T09:30:39.045Z,44.23
2019-02-27T09:31:39.043Z,43.27
2019-02-27T09:32:39.013Z,42.43
2019-02-27T09:33:39.241Z,41.85
2019-02-27T09:34:38.986Z,41.39
2019-02-27T09:35:38.989Z,41.29
2019-02-27T09:36:43.017Z,40.91
2019-02-27T09:37:39.521Z,40.22
2019-02-27T09:38:38.915Z,40.02
2019-02-27T09:39:38.909Z,39.85
2019-02-27T09:40:39.685Z,39.83
2019-02-27T09:41:38.877Z,39.64
2019-02-27T09:44:08.931Z,39.97
2019-02-27T09:46:09.251Z,39.11
2019-02-27T09:47:07.044Z,38.74
2019-02-27T09:48:02.936Z,39.12
2019-02-27T09:49:06.872Z,38.16
2019-02-27T09:50:02.905Z,37.70
2019-02-27T09:51:02.895Z,37.02
2019-02-27T09:52:02.874Z,36.74
2019-02-27T09:53:03.613Z,37.22
2019-02-27T09:54:02.851Z,37.22
2019-02-27T09:55:02.836Z,36.72
2019-02-27T09:56:02.834Z,37.30
2019-02-27T09:57:02.899Z,37.39
2019-02-27T09:58:02.793Z,38.74
2019-02-27T09:59:02.788Z,38.45
2019-02-27T10:00:03.007Z,39.31
2019-02-27T10:01:03.231Z,37.99
2019-02-27T10:02:02.746Z,38.39
2019-02-27T10:03:02.729Z,37.54
2019-02-27T10:04:02.717Z,36.77
2019-02-27T10:05:03.706Z,36.02
2019-02-27T10:06:02.690Z,34.67
2019-02-27T10:07:02.678Z,34.21
2019-02-27T10:08:02.665Z,34.78
2019-02-27T10:09:02.655Z,34.52
2019-02-27T10:10:02.648Z,33.95
2019-02-27T10:11:02.631Z,32.89
2019-02-27T10:12:02.618Z,32.41
2019-02-27T10:13:03.339Z,32.04
2019-02-27T10:14:02.595Z,30.98
2019-02-27T10:15:02.578Z,31.07
2019-02-27T10:16:03.730Z,30.69
2019-02-27T10:17:02.558Z,30.61
2019-02-27T10:18:02.542Z,30.12
2019-02-27T10:19:02.629Z,29.55
2019-02-27T10:20:02.948Z,29.14
2019-02-27T10:21:02.511Z,29.24
2019-02-27T10:22:02.494Z,29.22
2019-02-27T10:23:02.483Z,29.11
2019-02-27T10:24:04.866Z,29.13
2019-02-27T10:25:02.455Z,29.14
2019-02-27T10:26:02.442Z,29.72
2019-02-27T10:27:02.437Z,29.55
2019-02-27T10:28:04.393Z,27.92
2019-02-27T10:29:02.415Z,26.93
2019-02-27T10:30:11.088Z,27.31
2019-02-27T10:31:02.390Z,27.23
2019-02-27T10:32:02.371Z,26.93
2019-02-27T10:33:03.386Z,27.03
2019-02-27T10:34:02.350Z,27.24
2019-02-27T10:35:02.340Z,26.76
2019-02-27T10:36:03.799Z,26.87
2019-02-27T10:37:02.417Z,25.81
2019-02-27T10:38:02.301Z,25.87
2019-02-27T10:39:02.843Z,26.66
2019-02-27T10:40:02.294Z,26.76
2019-02-27T10:41:02.272Z,26.28
2019-02-27T10:42:02.254Z,26.18
2019-02-27T10:43:02.261Z,26.08
2019-02-27T10:44:02.234Z,25.81
2019-02-27T10:45:02.222Z,25.81
2019-02-27T10:46:02.213Z,25.62
2019-02-27T10:47:02.201Z,24.46
2019-02-27T10:48:02.190Z,25.34
2019-02-27T10:49:02.186Z,24.27
2019-02-27T10:50:03.056Z,23.99
2019-02-27T10:51:02.164Z,23.70
2019-02-27T10:52:02.146Z,24.07
2019-02-27T10:53:02.136Z,24.54
2019-02-27T10:54:05.170Z,24.52
2019-02-27T10:55:02.121Z,25.59
2019-02-27T10:56:02.109Z,25.87
2019-02-27T10:57:02.099Z,25.59
2019-02-27T10:58:02.083Z,26.37
2019-02-27T10:59:02.076Z,25.87
2019-02-27T11:00:02.060Z,26.34
2019-02-27T11:01:02.049Z,26.84
2019-02-27T11:02:02.084Z,26.75
2019-02-27T11:03:02.027Z,26.93
2019-02-27T11:04:03.098Z,26.57
2019-02-27T11:05:02.001Z,26.19
2019-02-27T11:06:01.992Z,25.98
2019-02-27T11:07:01.979Z,26.46
2019-02-27T11:08:01.970Z,26.45
2019-02-27T11:09:04.470Z,27.12
2019-02-27T11:10:01.954Z,27.80
2019-02-27T11:11:01.944Z,28.28
2019-02-27T11:12:01.929Z,27.80
2019-02-27T11:13:05.518Z,28.08
2019-02-27T11:14:01.903Z,27.71
2019-02-27T11:15:01.895Z,27.71
2019-02-27T11:16:01.888Z,28.00
2019-02-27T11:17:02.741Z,28.08
2019-02-27T11:18:05.378Z,28.18
2019-02-27T11:19:01.845Z,27.98
2019-02-27T11:20:01.853Z,27.71
2019-02-27T11:21:01.823Z,27.13
2019-02-27T11:22:01.820Z,27.40
2019-02-27T11:23:06.528Z,27.91
2019-02-27T11:24:01.790Z,28.48
2019-02-27T11:25:01.778Z,27.81
2019-02-27T11:26:01.924Z,27.24
2019-02-27T11:27:05.745Z,26.87
2019-02-27T11:28:01.743Z,27.14
2019-02-27T11:29:01.733Z,27.14
2019-02-27T11:30:03.090Z,27.24
2019-02-27T11:31:01.718Z,27.25
2019-02-27T11:32:01.702Z,27.24
2019-02-27T11:33:01.698Z,27.64
2019-02-27T11:34:01.675Z,26.88
2019-02-27T11:35:01.673Z,26.59
2019-02-27T11:36:03.228Z,26.70
2019-02-27T11:37:01.646Z,26.23
2019-02-27T11:38:01.641Z,26.41
2019-02-27T11:39:01.618Z,26.12
2019-02-27T11:40:01.616Z,26.88
2019-02-27T11:41:01.599Z,27.15
2019-02-27T11:42:01.589Z,27.44
2019-02-27T11:43:06.366Z,27.92
2019-02-27T11:44:01.560Z,28.40
2019-02-27T11:45:01.568Z,28.41
2019-02-27T11:46:01.539Z,28.22
2019-02-27T11:47:01.529Z,28.31
2019-02-27T11:48:01.519Z,28.41
2019-02-27T11:49:03.191Z,28.33
2019-02-27T11:50:01.490Z,28.23
2019-02-27T11:51:01.478Z,27.85
2019-02-27T11:52:01.480Z,27.36
2019-02-27T11:53:02.744Z,28.22
2019-02-27T11:54:01.441Z,28.33
2019-02-27T11:55:01.430Z,28.31
2019-02-27T11:56:01.416Z,28.22
2019-02-27T11:57:01.405Z,28.43
2019-02-27T11:58:04.423Z,28.22
2019-02-27T11:59:01.404Z,28.33
2019-02-27T12:00:01.378Z,28.33
2019-02-27T12:01:01.367Z,27.85
2019-02-27T12:02:01.342Z,28.33
2019-02-27T12:03:01.330Z,28.81
2019-02-27T12:04:01.330Z,28.22
2019-02-27T12:05:01.309Z,28.31
2019-02-27T12:06:01.299Z,28.88
2019-02-27T12:07:01.287Z,29.16
2019-02-27T12:08:01.265Z,29.46
2019-02-27T12:09:01.253Z,29.56
2019-02-27T12:10:01.241Z,29.47
2019-02-27T12:11:01.227Z,29.01
2019-02-27T12:12:01.263Z,28.72
2019-02-27T12:13:01.665Z,28.89
2019-02-27T12:14:01.186Z,28.99
2019-02-27T12:15:01.180Z,28.88
2019-02-27T12:16:01.160Z,29.55
2019-02-27T12:17:01.172Z,30.12
2019-02-27T12:18:01.712Z,30.41
2019-02-27T12:19:01.132Z,30.61
2019-02-27T12:20:01.106Z,29.94
2019-02-27T12:21:01.097Z,29.94
2019-02-27T12:22:01.079Z,30.32
2019-02-27T12:23:01.069Z,30.40
2019-02-27T12:24:01.059Z,31.07
2019-02-27T12:25:01.044Z,31.46
2019-02-27T12:26:02.467Z,31.07
2019-02-27T12:27:01.009Z,30.90
2019-02-27T12:28:00.997Z,30.90
2019-02-27T12:29:00.988Z,31.28
2019-02-27T12:30:02.989Z,31.38
2019-02-27T12:31:00.969Z,31.10
2019-02-27T12:32:00.940Z,31.01
2019-02-27T12:33:00.936Z,31.10
2019-02-27T12:34:03.345Z,30.54
2019-02-27T12:35:03.029Z,30.63
2019-02-27T12:36:00.897Z,30.82
2019-02-27T12:37:00.873Z,31.20
2019-02-27T12:38:00.854Z,31.67
2019-02-27T12:39:00.838Z,32.23
2019-02-27T12:40:00.842Z,32.54
2019-02-27T12:41:00.808Z,32.52
2019-02-27T12:42:00.804Z,33.76
2019-02-27T12:43:00.777Z,34.11
2019-02-27T12:44:00.779Z,35.65
2019-02-27T12:45:00.762Z,36.41
2019-02-27T12:46:01.608Z,36.97
2019-02-27T12:47:00.729Z,37.34
2019-02-27T12:48:00.710Z,37.91
2019-02-27T12:49:00.688Z,38.10
2019-02-27T12:50:00.674Z,38.76
2019-02-27T12:51:03.499Z,38.76
2019-02-27T12:52:00.642Z,39.33
2019-02-27T12:53:00.629Z,39.61
2019-02-27T12:54:00.622Z,39.61
2019-02-27T12:55:01.770Z,39.99